sensor_id;sensor_type;location;lat;lon;timestamp;pressure;altitude;pressure_sealevel;temperature;humidity
32452;BME280;45528;52.102;5.242;2023-08-30T00:00:40;100481.0;;;19.09;61.78
32452;BME280;45528;52.102;5.242;2023-08-30T00:02:17;100471.0;;;19.09;61.77
32452;BME280;45528;52.102;5.242;2023-08-30T00:05:29;100473.0;;;19.03;61.92
32452;BME280;45528;52.102;5.242;2023-08-30T00:07:06;100471.0;;;19.02;62.02
32452;BME280;45528;52.102;5.242;2023-08-30T00:08:42;100465.0;;;19.02;62.0
32452;BME280;45528;52.102;5.242;2023-08-30T00:11:54;100463.0;;;19.02;62.06
32452;BME280;45528;52.102;5.242;2023-08-30T00:13:30;100462.0;;;19.0;61.99
32452;BME280;45528;52.102;5.242;2023-08-30T00:15:08;100456.0;;;19.02;62.14
32452;BME280;45528;52.102;5.242;2023-08-30T00:18:20;100453.0;;;18.98;62.14
32452;BME280;45528;52.102;5.242;2023-08-30T00:19:58;100453.0;;;18.95;62.09
32452;BME280;45528;52.102;5.242;2023-08-30T00:21:33;100448.0;;;19.0;62.16
32452;BME280;45528;52.102;5.242;2023-08-30T00:23:10;100443.0;;;19.02;62.21
32452;BME280;45528;52.102;5.242;2023-08-30T00:26:22;100438.0;;;19.06;62.13
32452;BME280;45528;52.102;5.242;2023-08-30T00:27:58;100440.0;;;19.06;62.0
32452;BME280;45528;52.102;5.242;2023-08-30T00:29:34;100440.0;;;19.07;62.03
32452;BME280;45528;52.102;5.242;2023-08-30T00:32:46;100440.0;;;19.11;61.9
32452;BME280;45528;52.102;5.242;2023-08-30T00:34:23;100435.0;;;19.06;62.08
32452;BME280;45528;52.102;5.242;2023-08-30T00:35:59;100436.0;;;19.14;61.99
32452;BME280;45528;52.102;5.242;2023-08-30T00:39:12;100435.0;;;19.14;61.98
32452;BME280;45528;52.102;5.242;2023-08-30T00:40:48;100433.0;;;19.16;62.06
32452;BME280;45528;52.102;5.242;2023-08-30T00:42:24;100432.0;;;19.16;61.98
32452;BME280;45528;52.102;5.242;2023-08-30T00:44:00;100436.0;;;19.14;61.92
32452;BME280;45528;52.102;5.242;2023-08-30T00:47:15;100431.0;;;19.2;61.99
32452;BME280;45528;52.102;5.242;2023-08-30T00:48:52;100426.0;;;19.23;61.72
32452;BME280;45528;52.102;5.242;2023-08-30T00:50:29;100430.0;;;19.25;61.65
32452;BME280;45528;52.102;5.242;2023-08-30T00:53:45;100430.0;;;19.23;61.75
32452;BME280;45528;52.102;5.242;2023-08-30T00:55:22;100430.0;;;19.25;61.93
32452;BME280;45528;52.102;5.242;2023-08-30T00:57:00;100428.0;;;19.27;61.6
32452;BME280;45528;52.102;5.242;2023-08-30T00:58:37;100425.0;;;19.27;61.78
32452;BME280;45528;52.102;5.242;2023-08-30T01:01:50;100422.0;;;19.3;61.6
32452;BME280;45528;52.102;5.242;2023-08-30T01:03:27;100419.0;;;19.29;61.83
32452;BME280;45528;52.102;5.242;2023-08-30T01:05:03;100421.0;;;19.32;61.42
32452;BME280;45528;52.102;5.242;2023-08-30T01:08:15;100419.0;;;19.34;61.75
32452;BME280;45528;52.102;5.242;2023-08-30T01:09:51;100418.0;;;19.38;61.5
32452;BME280;45528;52.102;5.242;2023-08-30T01:11:32;100418.0;;;19.41;61.52
32452;BME280;45528;52.102;5.242;2023-08-30T01:14:59;100413.0;;;19.38;61.52
32452;BME280;45528;52.102;5.242;2023-08-30T01:16:37;100417.0;;;19.46;61.41
32452;BME280;45528;52.102;5.242;2023-08-30T01:18:17;100416.0;;;19.43;61.26
32452;BME280;45528;52.102;5.242;2023-08-30T01:19:58;100418.0;;;19.47;61.19
32452;BME280;45528;52.102;5.242;2023-08-30T01:21:45;100418.0;;;19.45;61.24
32452;BME280;45528;52.102;5.242;2023-08-30T01:25:23;100417.0;;;19.53;61.18
32452;BME280;45528;52.102;5.242;2023-08-30T01:27:15;100415.0;;;19.52;61.16
32452;BME280;45528;52.102;5.242;2023-08-30T01:28:52;100415.0;;;19.59;60.9
32452;BME280;45528;52.102;5.242;2023-08-30T01:30:30;100418.0;;;19.59;60.81
32452;BME280;45528;52.102;5.242;2023-08-30T01:32:08;100414.0;;;19.64;60.55
32452;BME280;45528;52.102;5.242;2023-08-30T01:35:22;100417.0;;;19.64;60.4
32452;BME280;45528;52.102;5.242;2023-08-30T01:37:01;100417.0;;;19.7;60.38
32452;BME280;45528;52.102;5.242;2023-08-30T01:38:40;100415.0;;;19.72;60.27
32452;BME280;45528;52.102;5.242;2023-08-30T01:41:54;100409.0;;;19.75;59.96
32452;BME280;45528;52.102;5.242;2023-08-30T01:43:32;100406.0;;;19.77;59.77
32452;BME280;45528;52.102;5.242;2023-08-30T01:45:10;100402.0;;;19.8;59.79
32452;BME280;45528;52.102;5.242;2023-08-30T01:46:47;100401.0;;;19.82;59.87
32452;BME280;45528;52.102;5.242;2023-08-30T01:50:03;100398.0;;;19.84;59.82
32452;BME280;45528;52.102;5.242;2023-08-30T01:51:40;100399.0;;;19.84;60.04
32452;BME280;45528;52.102;5.242;2023-08-30T01:53:16;100397.0;;;19.84;59.63
32452;BME280;45528;52.102;5.242;2023-08-30T01:56:29;100394.0;;;19.86;59.78
32452;BME280;45528;52.102;5.242;2023-08-30T01:58:06;100391.0;;;19.87;60.01
32452;BME280;45528;52.102;5.242;2023-08-30T01:59:43;100393.0;;;19.87;59.53
32452;BME280;45528;52.102;5.242;2023-08-30T02:02:56;100391.0;;;19.93;59.45
32452;BME280;45528;52.102;5.242;2023-08-30T02:04:32;100390.0;;;19.93;59.12
32452;BME280;45528;52.102;5.242;2023-08-30T02:06:11;100385.0;;;19.91;59.57
32452;BME280;45528;52.102;5.242;2023-08-30T02:07:55;100384.0;;;19.95;59.49
32452;BME280;45528;52.102;5.242;2023-08-30T02:11:23;100387.0;;;19.98;59.46
32452;BME280;45528;52.102;5.242;2023-08-30T02:13:04;100384.0;;;19.98;59.21
32452;BME280;45528;52.102;5.242;2023-08-30T02:14:45;100383.0;;;20.0;59.34
32452;BME280;45528;52.102;5.242;2023-08-30T02:16:25;100384.0;;;19.98;59.44
32452;BME280;45528;52.102;5.242;2023-08-30T02:19:41;100381.0;;;19.95;59.54
32452;BME280;45528;52.102;5.242;2023-08-30T02:21:18;100385.0;;;19.91;59.38
32452;BME280;45528;52.102;5.242;2023-08-30T02:22:58;100381.0;;;20.0;59.07
32452;BME280;45528;52.102;5.242;2023-08-30T02:24:34;100380.0;;;19.97;59.13
32452;BME280;45528;52.102;5.242;2023-08-30T02:27:47;100382.0;;;20.0;58.85
32452;BME280;45528;52.102;5.242;2023-08-30T02:29:23;100380.0;;;20.02;58.66
32452;BME280;45528;52.102;5.242;2023-08-30T02:30:59;100374.0;;;20.02;58.52
32452;BME280;45528;52.102;5.242;2023-08-30T02:34:11;100374.0;;;20.02;58.79
32452;BME280;45528;52.102;5.242;2023-08-30T02:35:47;100370.0;;;20.06;58.86
32452;BME280;45528;52.102;5.242;2023-08-30T02:37:23;100363.0;;;20.06;58.44
32452;BME280;45528;52.102;5.242;2023-08-30T02:40:35;100366.0;;;20.04;58.59
32452;BME280;45528;52.102;5.242;2023-08-30T02:42:12;100365.0;;;20.03;58.64
32452;BME280;45528;52.102;5.242;2023-08-30T02:43:48;100363.0;;;20.0;58.35
32452;BME280;45528;52.102;5.242;2023-08-30T02:45:24;100361.0;;;20.0;58.34
32452;BME280;45528;52.102;5.242;2023-08-30T02:48:36;100357.0;;;20.0;57.94
32452;BME280;45528;52.102;5.242;2023-08-30T02:50:12;100353.0;;;20.0;58.05
32452;BME280;45528;52.102;5.242;2023-08-30T02:51:48;100353.0;;;19.89;58.36
32452;BME280;45528;52.102;5.242;2023-08-30T02:55:01;100351.0;;;19.86;58.33
32452;BME280;45528;52.102;5.242;2023-08-30T02:56:37;100348.0;;;19.89;58.23
32452;BME280;45528;52.102;5.242;2023-08-30T02:58:14;100348.0;;;19.84;58.42
32452;BME280;45528;52.102;5.242;2023-08-30T03:01:26;100340.0;;;19.98;57.59
32452;BME280;45528;52.102;5.242;2023-08-30T03:03:03;100336.0;;;19.95;57.73
32452;BME280;45528;52.102;5.242;2023-08-30T03:04:39;100334.0;;;19.91;57.98
32452;BME280;45528;52.102;5.242;2023-08-30T03:06:15;100328.0;;;19.89;57.93
32452;BME280;45528;52.102;5.242;2023-08-30T03:09:29;100323.0;;;19.88;58.18
32452;BME280;45528;52.102;5.242;2023-08-30T03:11:09;100321.0;;;19.84;57.84
32452;BME280;45528;52.102;5.242;2023-08-30T03:12:45;100319.0;;;19.89;57.74
32452;BME280;45528;52.102;5.242;2023-08-30T03:15:57;100315.0;;;19.86;57.88
32452;BME280;45528;52.102;5.242;2023-08-30T03:17:33;100317.0;;;18.64;63.78
32452;BME280;45528;52.102;5.242;2023-08-30T03:19:10;100315.0;;;18.84;63.72
32452;BME280;45528;52.102;5.242;2023-08-30T03:22:23;100309.0;;;19.04;62.48
32452;BME280;45528;52.102;5.242;2023-08-30T03:23:59;100308.0;;;19.18;62.67
32452;BME280;45528;52.102;5.242;2023-08-30T03:25:35;100306.0;;;19.06;60.92
32452;BME280;45528;52.102;5.242;2023-08-30T03:27:11;100307.0;;;19.18;60.21
32452;BME280;45528;52.102;5.242;2023-08-30T03:30:23;100306.0;;;19.36;59.33
32452;BME280;45528;52.102;5.242;2023-08-30T03:31:59;100308.0;;;18.75;62.14
32452;BME280;45528;52.102;5.242;2023-08-30T03:33:35;100303.0;;;18.63;63.38
32452;BME280;45528;52.102;5.242;2023-08-30T03:36:48;100303.0;;;18.63;62.46
32452;BME280;45528;52.102;5.242;2023-08-30T03:38:24;100293.0;;;18.46;63.47
32452;BME280;45528;52.102;5.242;2023-08-30T03:40:00;100293.0;;;18.34;63.95
32452;BME280;45528;52.102;5.242;2023-08-30T03:43:12;100290.0;;;18.2;64.52
32452;BME280;45528;52.102;5.242;2023-08-30T03:44:48;100289.0;;;18.46;63.81
32452;BME280;45528;52.102;5.242;2023-08-30T03:46:24;100284.0;;;18.63;62.77
32452;BME280;45528;52.102;5.242;2023-08-30T03:49:36;100284.0;;;18.43;62.35
32452;BME280;45528;52.102;5.242;2023-08-30T03:51:13;100275.0;;;18.84;61.03
32452;BME280;45528;52.102;5.242;2023-08-30T03:52:49;100273.0;;;19.0;60.39
32452;BME280;45528;52.102;5.242;2023-08-30T03:54:25;100269.0;;;18.95;60.54
32452;BME280;45528;52.102;5.242;2023-08-30T03:57:37;100268.0;;;18.87;60.71
32452;BME280;45528;52.102;5.242;2023-08-30T03:59:13;100272.0;;;18.77;60.79
32452;BME280;45528;52.102;5.242;2023-08-30T04:00:49;100272.0;;;18.71;60.72
32452;BME280;45528;52.102;5.242;2023-08-30T04:04:02;100265.0;;;18.68;60.93
32452;BME280;45528;52.102;5.242;2023-08-30T04:05:38;100263.0;;;18.63;61.14
32452;BME280;45528;52.102;5.242;2023-08-30T04:07:14;100269.0;;;18.61;61.25
32452;BME280;45528;52.102;5.242;2023-08-30T04:10:26;100266.0;;;18.54;61.32
32452;BME280;45528;52.102;5.242;2023-08-30T04:12:03;100260.0;;;18.52;61.52
32452;BME280;45528;52.102;5.242;2023-08-30T04:13:39;100258.0;;;18.45;61.63
32452;BME280;45528;52.102;5.242;2023-08-30T04:15:15;100258.0;;;18.41;61.38
32452;BME280;45528;52.102;5.242;2023-08-30T04:18:29;100260.0;;;18.39;61.55
32452;BME280;45528;52.102;5.242;2023-08-30T04:20:06;100257.0;;;18.37;61.72
32452;BME280;45528;52.102;5.242;2023-08-30T04:21:43;100257.0;;;18.31;61.8
32452;BME280;45528;52.102;5.242;2023-08-30T04:24:55;100260.0;;;18.3;61.68
32452;BME280;45528;52.102;5.242;2023-08-30T04:26:31;100261.0;;;18.32;61.66
32452;BME280;45528;52.102;5.242;2023-08-30T04:28:07;100263.0;;;18.28;61.88
32452;BME280;45528;52.102;5.242;2023-08-30T04:31:19;100259.0;;;18.25;61.81
32452;BME280;45528;52.102;5.242;2023-08-30T04:32:56;100257.0;;;18.18;61.84
32452;BME280;45528;52.102;5.242;2023-08-30T04:34:32;100259.0;;;18.18;61.95
32452;BME280;45528;52.102;5.242;2023-08-30T04:37:44;100259.0;;;18.16;62.05
32452;BME280;45528;52.102;5.242;2023-08-30T04:39:20;100253.0;;;18.21;61.96
32452;BME280;45528;52.102;5.242;2023-08-30T04:40:57;100249.0;;;18.18;62.02
32452;BME280;45528;52.102;5.242;2023-08-30T04:42:33;100243.0;;;18.12;62.13
32452;BME280;45528;52.102;5.242;2023-08-30T04:45:47;100243.0;;;18.09;62.03
32452;BME280;45528;52.102;5.242;2023-08-30T04:47:24;100242.0;;;18.06;61.86
32452;BME280;45528;52.102;5.242;2023-08-30T04:49:00;100238.0;;;18.04;61.83
32452;BME280;45528;52.102;5.242;2023-08-30T04:52:12;100233.0;;;18.04;61.96
32452;BME280;45528;52.102;5.242;2023-08-30T04:53:48;100233.0;;;18.0;61.83
32452;BME280;45528;52.102;5.242;2023-08-30T04:55:24;100233.0;;;17.97;61.95
32452;BME280;45528;52.102;5.242;2023-08-30T04:58:36;100236.0;;;17.98;61.7
32452;BME280;45528;52.102;5.242;2023-08-30T05:00:13;100236.0;;;17.96;61.85
32452;BME280;45528;52.102;5.242;2023-08-30T05:01:49;100235.0;;;17.97;61.74
32452;BME280;45528;52.102;5.242;2023-08-30T05:03:26;100232.0;;;17.91;61.66
32452;BME280;45528;52.102;5.242;2023-08-30T05:06:38;100228.0;;;17.89;61.87
32452;BME280;45528;52.102;5.242;2023-08-30T05:08:14;100221.0;;;17.89;62.12
32452;BME280;45528;52.102;5.242;2023-08-30T05:09:50;100217.0;;;17.88;62.09
32452;BME280;45528;52.102;5.242;2023-08-30T05:13:03;100214.0;;;17.86;62.2
32452;BME280;45528;52.102;5.242;2023-08-30T05:14:38;100210.0;;;17.86;62.26
32452;BME280;45528;52.102;5.242;2023-08-30T05:16:15;100215.0;;;17.91;62.13
32452;BME280;45528;52.102;5.242;2023-08-30T05:19:27;100213.0;;;17.91;62.11
32452;BME280;45528;52.102;5.242;2023-08-30T05:21:04;100209.0;;;17.96;62.18
32452;BME280;45528;52.102;5.242;2023-08-30T05:22:40;100208.0;;;18.04;61.83
32452;BME280;45528;52.102;5.242;2023-08-30T05:25:52;100212.0;;;18.09;61.7
32452;BME280;45528;52.102;5.242;2023-08-30T05:27:28;100210.0;;;18.12;61.47
32452;BME280;45528;52.102;5.242;2023-08-30T05:29:04;100211.0;;;18.2;61.47
32452;BME280;45528;52.102;5.242;2023-08-30T05:30:42;100216.0;;;18.27;61.37
32452;BME280;45528;52.102;5.242;2023-08-30T05:33:55;100209.0;;;18.3;61.31
32452;BME280;45528;52.102;5.242;2023-08-30T05:35:31;100216.0;;;18.34;61.32
32452;BME280;45528;52.102;5.242;2023-08-30T05:37:07;100214.0;;;18.45;61.07
32452;BME280;45528;52.102;5.242;2023-08-30T05:40:19;100212.0;;;18.52;60.99
32452;BME280;45528;52.102;5.242;2023-08-30T05:41:55;100213.0;;;18.54;61.11
32452;BME280;45528;52.102;5.242;2023-08-30T05:43:31;100215.0;;;18.61;61.15
32452;BME280;45528;52.102;5.242;2023-08-30T05:46:45;100215.0;;;18.66;60.58
32452;BME280;45528;52.102;5.242;2023-08-30T05:48:22;100217.0;;;18.68;60.72
32452;BME280;45528;52.102;5.242;2023-08-30T05:49:58;100224.0;;;18.84;60.1
32452;BME280;45528;52.102;5.242;2023-08-30T05:51:34;100230.0;;;18.88;60.11
32452;BME280;45528;52.102;5.242;2023-08-30T05:54:46;100227.0;;;18.88;60.27
32452;BME280;45528;52.102;5.242;2023-08-30T05:56:22;100231.0;;;18.93;60.26
32452;BME280;45528;52.102;5.242;2023-08-30T05:58:00;100227.0;;;19.0;60.05
32452;BME280;45528;52.102;5.242;2023-08-30T06:01:13;100231.0;;;19.02;60.02
32452;BME280;45528;52.102;5.242;2023-08-30T06:02:50;100230.0;;;19.02;60.44
32452;BME280;45528;52.102;5.242;2023-08-30T06:04:26;100225.0;;;19.16;59.95
32452;BME280;45528;52.102;5.242;2023-08-30T06:07:38;100223.0;;;19.18;60.23
32452;BME280;45528;52.102;5.242;2023-08-30T06:09:14;100216.0;;;19.25;59.64
32452;BME280;45528;52.102;5.242;2023-08-30T06:10:50;100213.0;;;19.25;59.74
32452;BME280;45528;52.102;5.242;2023-08-30T06:12:26;100208.0;;;19.29;59.79
32452;BME280;45528;52.102;5.242;2023-08-30T06:15:38;100201.0;;;19.32;60.03
32452;BME280;45528;52.102;5.242;2023-08-30T06:17:14;100195.0;;;19.3;60.15
32452;BME280;45528;52.102;5.242;2023-08-30T06:18:51;100191.0;;;19.28;60.55
32452;BME280;45528;52.102;5.242;2023-08-30T06:22:04;100194.0;;;19.18;61.3
32452;BME280;45528;52.102;5.242;2023-08-30T06:23:41;100201.0;;;19.16;61.35
32452;BME280;45528;52.102;5.242;2023-08-30T06:25:17;100198.0;;;19.2;61.51
32452;BME280;45528;52.102;5.242;2023-08-30T06:28:29;100201.0;;;19.22;61.96
32452;BME280;45528;52.102;5.242;2023-08-30T06:30:06;100202.0;;;19.21;62.52
32452;BME280;45528;52.102;5.242;2023-08-30T06:31:43;100203.0;;;19.21;63.06
32452;BME280;45528;52.102;5.242;2023-08-30T06:34:56;100205.0;;;19.2;63.41
32452;BME280;45528;52.102;5.242;2023-08-30T06:36:32;100193.0;;;19.18;63.7
32452;BME280;45528;52.102;5.242;2023-08-30T06:38:08;100188.0;;;19.12;63.95
32452;BME280;45528;52.102;5.242;2023-08-30T06:39:44;100191.0;;;19.12;64.08
32452;BME280;45528;52.102;5.242;2023-08-30T06:42:56;100190.0;;;19.07;64.44
32452;BME280;45528;52.102;5.242;2023-08-30T06:44:32;100187.0;;;19.07;64.78
32452;BME280;45528;52.102;5.242;2023-08-30T06:46:08;100181.0;;;19.06;65.02
32452;BME280;45528;52.102;5.242;2023-08-30T06:49:21;100182.0;;;19.07;65.31
32452;BME280;45528;52.102;5.242;2023-08-30T06:50:57;100176.0;;;19.11;65.37
32452;BME280;45528;52.102;5.242;2023-08-30T06:52:34;100175.0;;;19.05;65.55
32452;BME280;45528;52.102;5.242;2023-08-30T06:55:46;100176.0;;;19.04;65.92
32452;BME280;45528;52.102;5.242;2023-08-30T06:57:32;100172.0;;;19.04;66.08
32452;BME280;45528;52.102;5.242;2023-08-30T06:59:09;100170.0;;;19.04;66.22
32452;BME280;45528;52.102;5.242;2023-08-30T07:00:45;100169.0;;;19.04;66.38
32452;BME280;45528;52.102;5.242;2023-08-30T07:03:57;100172.0;;;19.09;66.35
32452;BME280;45528;52.102;5.242;2023-08-30T07:05:33;100169.0;;;19.05;66.47
32452;BME280;45528;52.102;5.242;2023-08-30T07:07:09;100166.0;;;19.07;66.66
32452;BME280;45528;52.102;5.242;2023-08-30T07:10:24;100165.0;;;19.11;66.7
32452;BME280;45528;52.102;5.242;2023-08-30T07:12:00;100160.0;;;19.16;66.72
32452;BME280;45528;52.102;5.242;2023-08-30T07:13:36;100164.0;;;19.18;66.66
32452;BME280;45528;52.102;5.242;2023-08-30T07:15:14;100162.0;;;19.16;66.8
32452;BME280;45528;52.102;5.242;2023-08-30T07:18:26;100161.0;;;19.25;66.72
32452;BME280;45528;52.102;5.242;2023-08-30T07:20:02;100152.0;;;19.2;66.94
32452;BME280;45528;52.102;5.242;2023-08-30T07:21:39;100147.0;;;19.25;66.95
32452;BME280;45528;52.102;5.242;2023-08-30T07:24:52;100146.0;;;19.23;67.05
32452;BME280;45528;52.102;5.242;2023-08-30T07:26:28;100146.0;;;19.32;66.95
32452;BME280;45528;52.102;5.242;2023-08-30T07:28:04;100144.0;;;19.3;67.22
32452;BME280;45528;52.102;5.242;2023-08-30T07:31:17;100140.0;;;19.37;66.95
32452;BME280;45528;52.102;5.242;2023-08-30T07:32:54;100139.0;;;19.39;66.92
32452;BME280;45528;52.102;5.242;2023-08-30T07:34:29;100134.0;;;19.41;66.77
32452;BME280;45528;52.102;5.242;2023-08-30T07:37:42;100132.0;;;19.41;67.08
32452;BME280;45528;52.102;5.242;2023-08-30T07:39:18;100127.0;;;19.36;67.28
32452;BME280;45528;52.102;5.242;2023-08-30T07:40:54;100130.0;;;19.41;67.27
32452;BME280;45528;52.102;5.242;2023-08-30T07:42:30;100128.0;;;19.41;67.3
32452;BME280;45528;52.102;5.242;2023-08-30T07:45:42;100119.0;;;19.39;67.8
32452;BME280;45528;52.102;5.242;2023-08-30T07:47:18;100112.0;;;19.34;67.94
32452;BME280;45528;52.102;5.242;2023-08-30T07:48:54;100111.0;;;19.29;68.12
32452;BME280;45528;52.102;5.242;2023-08-30T07:52:07;100109.0;;;19.27;68.42
32452;BME280;45528;52.102;5.242;2023-08-30T07:53:43;100101.0;;;19.3;68.49
32452;BME280;45528;52.102;5.242;2023-08-30T07:55:19;100105.0;;;19.31;68.58
32452;BME280;45528;52.102;5.242;2023-08-30T07:58:31;100103.0;;;19.36;68.55
32452;BME280;45528;52.102;5.242;2023-08-30T08:00:08;100102.0;;;19.38;68.55
32452;BME280;45528;52.102;5.242;2023-08-30T08:01:45;100092.0;;;19.45;68.41
32452;BME280;45528;52.102;5.242;2023-08-30T08:03:21;100087.0;;;19.45;68.55
32452;BME280;45528;52.102;5.242;2023-08-30T08:06:34;100080.0;;;19.45;68.75
32452;BME280;45528;52.102;5.242;2023-08-30T08:08:10;100083.0;;;19.47;68.87
32452;BME280;45528;52.102;5.242;2023-08-30T08:09:46;100080.0;;;19.53;68.84
32452;BME280;45528;52.102;5.242;2023-08-30T08:12:58;100087.0;;;19.53;69.05
32452;BME280;45528;52.102;5.242;2023-08-30T08:14:34;100088.0;;;19.52;69.16
32452;BME280;45528;52.102;5.242;2023-08-30T08:16:11;100093.0;;;19.52;68.99
32452;BME280;45528;52.102;5.242;2023-08-30T08:19:23;100089.0;;;19.54;68.94
32452;BME280;45528;52.102;5.242;2023-08-30T08:21:00;100087.0;;;19.57;68.86
32452;BME280;45528;52.102;5.242;2023-08-30T08:22:37;100090.0;;;19.66;68.69
32452;BME280;45528;52.102;5.242;2023-08-30T08:25:49;100088.0;;;19.68;68.52
32452;BME280;45528;52.102;5.242;2023-08-30T08:27:25;100086.0;;;19.66;68.69
32452;BME280;45528;52.102;5.242;2023-08-30T08:29:01;100089.0;;;19.61;68.83
32452;BME280;45528;52.102;5.242;2023-08-30T08:30:37;100086.0;;;19.75;68.39
32452;BME280;45528;52.102;5.242;2023-08-30T08:33:51;100091.0;;;19.77;68.3
32452;BME280;45528;52.102;5.242;2023-08-30T08:35:40;100088.0;;;19.75;68.3
32452;BME280;45528;52.102;5.242;2023-08-30T08:37:16;100090.0;;;19.7;68.61
32452;BME280;45528;52.102;5.242;2023-08-30T08:40:28;100081.0;;;19.77;68.5
32452;BME280;45528;52.102;5.242;2023-08-30T08:42:04;100086.0;;;19.77;68.58
32452;BME280;45528;52.102;5.242;2023-08-30T08:43:42;100080.0;;;19.72;68.67
32452;BME280;45528;52.102;5.242;2023-08-30T08:45:18;100076.0;;;19.64;68.83
32452;BME280;45528;52.102;5.242;2023-08-30T08:48:33;100080.0;;;19.68;69.19
32452;BME280;45528;52.102;5.242;2023-08-30T08:50:15;100077.0;;;19.75;69.06
32452;BME280;45528;52.102;5.242;2023-08-30T08:51:52;100072.0;;;19.66;69.45
32452;BME280;45528;52.102;5.242;2023-08-30T08:55:05;100075.0;;;19.75;69.14
32452;BME280;45528;52.102;5.242;2023-08-30T08:56:42;100077.0;;;19.88;68.83
32452;BME280;45528;52.102;5.242;2023-08-30T08:58:19;100074.0;;;19.84;68.89
32452;BME280;45528;52.102;5.242;2023-08-30T08:59:55;100075.0;;;19.84;68.94
32452;BME280;45528;52.102;5.242;2023-08-30T09:03:11;100071.0;;;19.86;69.11
32452;BME280;45528;52.102;5.242;2023-08-30T09:04:46;100070.0;;;19.87;69.11
32452;BME280;45528;52.102;5.242;2023-08-30T09:06:22;100066.0;;;19.84;69.24
32452;BME280;45528;52.102;5.242;2023-08-30T09:09:38;100065.0;;;19.91;69.08
32452;BME280;45528;52.102;5.242;2023-08-30T09:11:14;100066.0;;;19.82;69.33
32452;BME280;45528;52.102;5.242;2023-08-30T09:12:50;100066.0;;;19.87;69.27
32452;BME280;45528;52.102;5.242;2023-08-30T09:14:26;100067.0;;;19.93;69.11
32452;BME280;45528;52.102;5.242;2023-08-30T09:17:46;100069.0;;;19.91;69.44
32452;BME280;45528;52.102;5.242;2023-08-30T09:19:23;100067.0;;;20.0;69.25
32452;BME280;45528;52.102;5.242;2023-08-30T09:21:05;100065.0;;;20.02;69.39
32452;BME280;45528;52.102;5.242;2023-08-30T09:24:19;100060.0;;;19.98;69.58
32452;BME280;45528;52.102;5.242;2023-08-30T09:25:55;100061.0;;;20.16;69.45
32452;BME280;45528;52.102;5.242;2023-08-30T09:27:32;100061.0;;;20.2;69.28
32452;BME280;45528;52.102;5.242;2023-08-30T09:29:08;100058.0;;;20.27;69.11
32452;BME280;45528;52.102;5.242;2023-08-30T09:32:24;100052.0;;;20.25;69.23
32452;BME280;45528;52.102;5.242;2023-08-30T09:34:00;100049.0;;;20.27;69.13
32452;BME280;45528;52.102;5.242;2023-08-30T09:35:44;100049.0;;;20.32;69.14
32452;BME280;45528;52.102;5.242;2023-08-30T09:38:57;100045.0;;;20.32;69.49
32452;BME280;45528;52.102;5.242;2023-08-30T09:40:33;100053.0;;;20.3;69.59
32452;BME280;45528;52.102;5.242;2023-08-30T09:42:09;100056.0;;;20.38;69.63
32452;BME280;45528;52.102;5.242;2023-08-30T09:43:46;100059.0;;;20.45;69.77
32452;BME280;45528;52.102;5.242;2023-08-30T09:46:58;100049.0;;;20.5;69.77
32452;BME280;45528;52.102;5.242;2023-08-30T09:48:37;100055.0;;;20.58;69.69
32452;BME280;45528;52.102;5.242;2023-08-30T09:50:17;100052.0;;;20.66;69.53
32452;BME280;45528;52.102;5.242;2023-08-30T09:53:33;100049.0;;;20.71;69.58
32452;BME280;45528;52.102;5.242;2023-08-30T09:55:14;100055.0;;;20.77;69.31
32452;BME280;45528;52.102;5.242;2023-08-30T09:56:50;100050.0;;;20.7;69.49
32452;BME280;45528;52.102;5.242;2023-08-30T09:58:27;100047.0;;;20.8;69.41
32452;BME280;45528;52.102;5.242;2023-08-30T10:01:42;100048.0;;;20.89;69.62
32452;BME280;45528;52.102;5.242;2023-08-30T10:03:19;100043.0;;;20.98;69.72
32452;BME280;45528;52.102;5.242;2023-08-30T10:04:58;100047.0;;;21.09;69.67
32452;BME280;45528;52.102;5.242;2023-08-30T10:08:13;100047.0;;;21.18;69.8
32452;BME280;45528;52.102;5.242;2023-08-30T10:09:50;100048.0;;;21.25;69.91
32452;BME280;45528;52.102;5.242;2023-08-30T10:11:28;100048.0;;;21.22;70.27
32452;BME280;45528;52.102;5.242;2023-08-30T10:16:19;100047.0;;;21.51;70.53
32452;BME280;45528;52.102;5.242;2023-08-30T10:17:58;100044.0;;;21.67;70.83
32452;BME280;45528;52.102;5.242;2023-08-30T10:21:14;100047.0;;;21.85;70.91
32452;BME280;45528;52.102;5.242;2023-08-30T10:22:55;100053.0;;;22.03;70.97
32452;BME280;45528;52.102;5.242;2023-08-30T10:24:39;100055.0;;;21.98;70.97
32452;BME280;45528;52.102;5.242;2023-08-30T10:26:15;100061.0;;;22.25;70.31
32452;BME280;45528;52.102;5.242;2023-08-30T10:29:32;100062.0;;;22.33;70.27
32452;BME280;45528;52.102;5.242;2023-08-30T10:31:12;100064.0;;;22.4;70.03
32452;BME280;45528;52.102;5.242;2023-08-30T10:32:49;100061.0;;;22.38;70.25
32452;BME280;45528;52.102;5.242;2023-08-30T10:34:31;100062.0;;;22.51;69.47
32452;BME280;45528;52.102;5.242;2023-08-30T10:37:53;100066.0;;;22.54;68.37
32452;BME280;45528;52.102;5.242;2023-08-30T10:39:34;100065.0;;;22.67;67.7
32452;BME280;45528;52.102;5.242;2023-08-30T10:41:11;100070.0;;;22.69;66.58
32452;BME280;45528;52.102;5.242;2023-08-30T10:42:58;100075.0;;;22.85;64.91
32452;BME280;45528;52.102;5.242;2023-08-30T10:46:10;100077.0;;;22.57;65.7
32452;BME280;45528;52.102;5.242;2023-08-30T10:47:54;100075.0;;;22.57;65.11
32452;BME280;45528;52.102;5.242;2023-08-30T10:49:39;100078.0;;;22.93;65.27
32452;BME280;45528;52.102;5.242;2023-08-30T10:51:20;100086.0;;;23.19;63.1
32452;BME280;45528;52.102;5.242;2023-08-30T10:54:37;100076.0;;;23.17;62.05
32452;BME280;45528;52.102;5.242;2023-08-30T10:56:13;100082.0;;;23.05;60.01
32452;BME280;45528;52.102;5.242;2023-08-30T10:57:58;100081.0;;;23.09;62.25
32452;BME280;45528;52.102;5.242;2023-08-30T10:59:35;100086.0;;;23.04;60.78
32452;BME280;45528;52.102;5.242;2023-08-30T11:02:50;100088.0;;;23.18;61.32
32452;BME280;45528;52.102;5.242;2023-08-30T11:04:26;100094.0;;;23.2;61.7
32452;BME280;45528;52.102;5.242;2023-08-30T11:06:03;100093.0;;;23.38;60.64
32452;BME280;45528;52.102;5.242;2023-08-30T11:09:16;100099.0;;;23.33;60.2